sensor_id;sensor_type;location;lat;lon;timestamp;pressure;altitude;pressure_sealevel;temperature;humidity
17635;BME280;8936;49.010;12.120;2023-04-06T00:00:12;98223.56;;;7.59;68.92
17635;BME280;8936;49.010;12.120;2023-04-06T00:02:41;98227.84;;;7.49;68.13
17635;BME280;8936;49.010;12.120;2023-04-06T00:05:07;98227.63;;;7.50;69.34
17635;BME280;8936;49.010;12.120;2023-04-06T00:07:34;98220.94;;;7.48;69.19
17635;BME280;8936;49.010;12.120;2023-04-06T00:10:01;98227.16;;;7.53;68.88
17635;BME280;8936;49.010;12.120;2023-04-06T00:12:27;98222.56;;;7.37;68.95
17635;BME280;8936;49.010;12.120;2023-04-06T00:14:53;98221.44;;;7.22;74.39
17635;BME280;8936;49.010;12.120;2023-04-06T00:17:20;98216.00;;;7.28;73.28
17635;BME280;8936;49.010;12.120;2023-04-06T00:19:48;98214.38;;;7.27;71.40
17635;BME280;8936;49.010;12.120;2023-04-06T00:22:14;98220.16;;;7.36;72.07
17635;BME280;8936;49.010;12.120;2023-04-06T00:24:40;98221.28;;;7.40;71.74
17635;BME280;8936;49.010;12.120;2023-04-06T00:27:07;98222.91;;;7.41;70.92
17635;BME280;8936;49.010;12.120;2023-04-06T00:29:33;98218.97;;;7.43;72.70
17635;BME280;8936;49.010;12.120;2023-04-06T00:32:00;98220.59;;;7.44;72.04
17635;BME280;8936;49.010;12.120;2023-04-06T00:34:26;98219.78;;;7.44;72.16
17635;BME280;8936;49.010;12.120;2023-04-06T00:36:54;98220.34;;;7.46;72.45
17635;BME280;8936;49.010;12.120;2023-04-06T00:39:21;98219.44;;;7.40;72.47
17635;BME280;8936;49.010;12.120;2023-04-06T00:41:49;98219.28;;;7.07;73.84
17635;BME280;8936;49.010;12.120;2023-04-06T00:44:17;98220.19;;;6.78;76.76
17635;BME280;8936;49.010;12.120;2023-04-06T00:46:43;98214.31;;;6.87;80.43
17635;BME280;8936;49.010;12.120;2023-04-06T00:49:10;98214.19;;;6.94;77.95
17635;BME280;8936;49.010;12.120;2023-04-06T00:51:37;98217.19;;;7.09;76.32
17635;BME280;8936;49.010;12.120;2023-04-06T00:54:04;98221.09;;;7.18;75.74
17635;BME280;8936;49.010;12.120;2023-04-06T00:56:31;98215.44;;;7.26;75.32
17635;BME280;8936;49.010;12.120;2023-04-06T00:58:58;98216.47;;;7.25;73.91
17635;BME280;8936;49.010;12.120;2023-04-06T01:01:24;98211.88;;;7.21;73.64
17635;BME280;8936;49.010;12.120;2023-04-06T01:03:51;98218.31;;;7.25;73.43
17635;BME280;8936;49.010;12.120;2023-04-06T01:06:17;98218.31;;;7.25;73.52
17635;BME280;8936;49.010;12.120;2023-04-06T01:08:44;98220.28;;;7.29;74.79
17635;BME280;8936;49.010;12.120;2023-04-06T01:11:11;98211.63;;;7.22;74.17
17635;BME280;8936;49.010;12.120;2023-04-06T01:13:38;98208.09;;;7.05;73.87
17635;BME280;8936;49.010;12.120;2023-04-06T01:16:04;98219.16;;;7.02;77.02
17635;BME280;8936;49.010;12.120;2023-04-06T01:18:31;98216.41;;;7.09;75.51
17635;BME280;8936;49.010;12.120;2023-04-06T01:20:57;98214.06;;;7.12;75.86
17635;BME280;8936;49.010;12.120;2023-04-06T01:23:26;98207.25;;;7.16;74.85
17635;BME280;8936;49.010;12.120;2023-04-06T01:25:52;98203.78;;;7.16;74.85
17635;BME280;8936;49.010;12.120;2023-04-06T01:28:18;98199.84;;;7.18;76.46
17635;BME280;8936;49.010;12.120;2023-04-06T01:30:45;98198.25;;;7.17;75.27
17635;BME280;8936;49.010;12.120;2023-04-06T01:33:12;98204.28;;;7.01;74.26
17635;BME280;8936;49.010;12.120;2023-04-06T01:35:38;98193.22;;;6.58;76.38
17635;BME280;8936;49.010;12.120;2023-04-06T01:38:05;98201.94;;;6.23;78.93
17635;BME280;8936;49.010;12.120;2023-04-06T01:40:32;98203.91;;;5.86;82.80
17635;BME280;8936;49.010;12.120;2023-04-06T01:42:59;98191.53;;;5.80;84.88
17635;BME280;8936;49.010;12.120;2023-04-06T01:45:25;98201.94;;;6.23;84.02
17635;BME280;8936;49.010;12.120;2023-04-06T01:47:51;98200.00;;;5.89;83.38
17635;BME280;8936;49.010;12.120;2023-04-06T01:50:18;98206.13;;;6.01;83.35
17635;BME280;8936;49.010;12.120;2023-04-06T01:52:44;98195.88;;;5.93;83.87
17635;BME280;8936;49.010;12.120;2023-04-06T01:55:11;98199.47;;;5.80;84.91
17635;BME280;8936;49.010;12.120;2023-04-06T01:57:39;98200.25;;;5.99;84.98
17635;BME280;8936;49.010;12.120;2023-04-06T02:00:06;98205.28;;;6.19;83.33
17635;BME280;8936;49.010;12.120;2023-04-06T02:02:32;98199.53;;;6.22;81.65
17635;BME280;8936;49.010;12.120;2023-04-06T02:04:59;98206.31;;;6.41;80.93
17635;BME280;8936;49.010;12.120;2023-04-06T02:07:25;98201.56;;;6.20;81.33
17635;BME280;8936;49.010;12.120;2023-04-06T02:09:53;98194.53;;;6.25;81.61
17635;BME280;8936;49.010;12.120;2023-04-06T02:12:20;98195.25;;;5.61;82.28
17635;BME280;8936;49.010;12.120;2023-04-06T02:14:48;98196.28;;;5.60;85.25
17635;BME280;8936;49.010;12.120;2023-04-06T02:17:14;98194.91;;;5.39;87.89
17635;BME280;8936;49.010;12.120;2023-04-06T02:19:40;98194.25;;;5.74;86.46
17635;BME280;8936;49.010;12.120;2023-04-06T02:22:07;98197.63;;;5.81;86.08
17635;BME280;8936;49.010;12.120;2023-04-06T02:24:33;98194.88;;;5.58;85.80
17635;BME280;8936;49.010;12.120;2023-04-06T02:27:00;98195.81;;;5.81;85.19
17635;BME280;8936;49.010;12.120;2023-04-06T02:29:27;98190.97;;;5.60;85.44
17635;BME280;8936;49.010;12.120;2023-04-06T02:31:54;98199.25;;;5.82;85.60
17635;BME280;8936;49.010;12.120;2023-04-06T02:34:21;98200.84;;;5.71;83.99
17635;BME280;8936;49.010;12.120;2023-04-06T02:36:47;98194.91;;;5.39;85.48
17635;BME280;8936;49.010;12.120;2023-04-06T02:39:14;98193.38;;;5.50;86.84
17635;BME280;8936;49.010;12.120;2023-04-06T02:41:40;98185.63;;;5.49;87.87
17635;BME280;8936;49.010;12.120;2023-04-06T02:44:07;98190.88;;;5.37;87.57
17635;BME280;8936;49.010;12.120;2023-04-06T02:46:33;98183.16;;;5.54;86.92
17635;BME280;8936;49.010;12.120;2023-04-06T02:49:01;98187.84;;;5.52;86.19
17635;BME280;8936;49.010;12.120;2023-04-06T02:51:28;98193.28;;;5.38;86.99
17635;BME280;8936;49.010;12.120;2023-04-06T02:53:54;98184.56;;;5.68;85.94
17635;BME280;8936;49.010;12.120;2023-04-06T02:56:20;98184.38;;;5.51;86.16
17635;BME280;8936;49.010;12.120;2023-04-06T02:58:47;98177.59;;;5.85;86.42
17635;BME280;8936;49.010;12.120;2023-04-06T03:01:14;98177.47;;;5.50;85.52
17635;BME280;8936;49.010;12.120;2023-04-06T03:03:40;98183.72;;;5.85;85.30
17635;BME280;8936;49.010;12.120;2023-04-06T03:06:08;98186.75;;;6.01;83.25
17635;BME280;8936;49.010;12.120;2023-04-06T03:08:34;98187.13;;;6.04;82.28
17635;BME280;8936;49.010;12.120;2023-04-06T03:11:01;98194.34;;;5.85;83.01
17635;BME280;8936;49.010;12.120;2023-04-06T03:13:27;98191.28;;;6.00;82.99
17635;BME280;8936;49.010;12.120;2023-04-06T03:15:54;98191.06;;;6.13;82.20
17635;BME280;8936;49.010;12.120;2023-04-06T03:18:20;98196.16;;;6.26;81.10
17635;BME280;8936;49.010;12.120;2023-04-06T03:20:47;98183.16;;;6.25;80.62
17635;BME280;8936;49.010;12.120;2023-04-06T03:23:15;98185.41;;;6.10;80.70
17635;BME280;8936;49.010;12.120;2023-04-06T03:25:41;98189.78;;;6.04;81.49
17635;BME280;8936;49.010;12.120;2023-04-06T03:28:08;98196.59;;;6.00;82.17
17635;BME280;8936;49.010;12.120;2023-04-06T03:30:34;98192.69;;;6.14;81.65
17635;BME280;8936;49.010;12.120;2023-04-06T03:33:01;98202.75;;;6.24;80.87
17635;BME280;8936;49.010;12.120;2023-04-06T03:35:27;98196.97;;;6.27;80.24
17635;BME280;8936;49.010;12.120;2023-04-06T03:37:53;98202.13;;;6.10;80.98
17635;BME280;8936;49.010;12.120;2023-04-06T03:40:21;98208.59;;;6.14;81.78
17635;BME280;8936;49.010;12.120;2023-04-06T03:42:48;98202.50;;;6.25;81.03
17635;BME280;8936;49.010;12.120;2023-04-06T03:45:14;98215.19;;;6.35;80.97
17635;BME280;8936;49.010;12.120;2023-04-06T03:47:41;98198.94;;;6.31;80.06
17635;BME280;8936;49.010;12.120;2023-04-06T03:50:07;98212.34;;;6.36;80.14
17635;BME280;8936;49.010;12.120;2023-04-06T03:52:34;98216.63;;;6.37;80.05
17635;BME280;8936;49.010;12.120;2023-04-06T03:55:01;98220.06;;;6.38;79.75
17635;BME280;8936;49.010;12.120;2023-04-06T03:57:28;98220.28;;;6.36;79.90
17635;BME280;8936;49.010;12.120;2023-04-06T03:59:55;98226.97;;;6.39;79.79
17635;BME280;8936;49.010;12.120;2023-04-06T04:02:21;98226.16;;;6.38;79.67
17635;BME280;8936;49.010;12.120;2023-04-06T04:04:48;98216.84;;;6.36;79.76
17635;BME280;8936;49.010;12.120;2023-04-06T04:07:14;98222.94;;;6.36;80.19
17635;BME280;8936;49.010;12.120;2023-04-06T04:09:40;98228.25;;;6.36;79.95
17635;BME280;8936;49.010;12.120;2023-04-06T04:12:07;98227.69;;;6.34;79.86
17635;BME280;8936;49.010;12.120;2023-04-06T04:14:35;98231.84;;;6.42;79.53
17635;BME280;8936;49.010;12.120;2023-04-06T04:17:01;98225.22;;;6.21;80.04
17635;BME280;8936;49.010;12.120;2023-04-06T04:19:27;98217.16;;;5.86;82.22
17635;BME280;8936;49.010;12.120;2023-04-06T04:21:54;98234.81;;;5.92;83.19
17635;BME280;8936;49.010;12.120;2023-04-06T04:24:20;98232.19;;;6.04;83.00
17635;BME280;8936;49.010;12.120;2023-04-06T04:26:47;98227.72;;;6.16;82.01
17635;BME280;8936;49.010;12.120;2023-04-06T04:29:13;98235.13;;;6.14;81.78
17635;BME280;8936;49.010;12.120;2023-04-06T04:31:41;98237.09;;;6.19;81.41
17635;BME280;8936;49.010;12.120;2023-04-06T04:34:08;98231.50;;;5.97;81.76
17635;BME280;8936;49.010;12.120;2023-04-06T04:36:34;98239.09;;;5.57;84.76
17635;BME280;8936;49.010;12.120;2023-04-06T04:39:00;98239.09;;;5.57;86.54
17635;BME280;8936;49.010;12.120;2023-04-06T04:41:27;98236.66;;;5.74;86.17
17635;BME280;8936;49.010;12.120;2023-04-06T04:43:53;98236.22;;;5.77;85.60
17635;BME280;8936;49.010;12.120;2023-04-06T04:46:20;98233.63;;;5.88;85.00
17635;BME280;8936;49.010;12.120;2023-04-06T04:48:48;98239.00;;;6.00;84.29
17635;BME280;8936;49.010;12.120;2023-04-06T04:51:14;98234.63;;;6.06;83.52
17635;BME280;8936;49.010;12.120;2023-04-06T04:53:41;98238.69;;;6.08;83.23
17635;BME280;8936;49.010;12.120;2023-04-06T04:56:07;98236.84;;;6.09;83.27
17635;BME280;8936;49.010;12.120;2023-04-06T04:58:33;98233.94;;;6.10;83.31
17635;BME280;8936;49.010;12.120;2023-04-06T05:01:00;98234.41;;;6.07;83.37
17635;BME280;8936;49.010;12.120;2023-04-06T05:03:27;98231.97;;;6.06;83.82
17635;BME280;8936;49.010;12.120;2023-04-06T05:05:55;98230.72;;;6.08;83.39
17635;BME280;8936;49.010;12.120;2023-04-06T05:08:21;98240.50;;;6.08;83.32
17635;BME280;8936;49.010;12.120;2023-04-06T05:10:47;98242.44;;;6.01;83.68
17635;BME280;8936;49.010;12.120;2023-04-06T05:13:14;98242.81;;;6.04;83.38
17635;BME280;8936;49.010;12.120;2023-04-06T05:15:41;98239.66;;;5.48;86.33
17635;BME280;8936;49.010;12.120;2023-04-06T05:18:07;98244.66;;;5.37;88.48
17635;BME280;8936;49.010;12.120;2023-04-06T05:20:34;98245.09;;;5.34;89.09
17635;BME280;8936;49.010;12.120;2023-04-06T05:23:02;98243.78;;;5.43;89.06
17635;BME280;8936;49.010;12.120;2023-04-06T05:25:28;98242.28;;;5.66;88.27
17635;BME280;8936;49.010;12.120;2023-04-06T05:27:55;98247.75;;;5.82;87.11
17635;BME280;8936;49.010;12.120;2023-04-06T05:30:21;98243.47;;;5.88;86.50
17635;BME280;8936;49.010;12.120;2023-04-06T05:32:47;98249.34;;;5.90;85.91
17635;BME280;8936;49.010;12.120;2023-04-06T05:35:14;98244.59;;;5.92;85.97
17635;BME280;8936;49.010;12.120;2023-04-06T05:37:42;98253.59;;;5.91;86.09
17635;BME280;8936;49.010;12.120;2023-04-06T05:40:10;98249.69;;;5.93;86.02
17635;BME280;8936;49.010;12.120;2023-04-06T05:42:37;98247.63;;;5.95;86.11
17635;BME280;8936;49.010;12.120;2023-04-06T05:45:04;98245.78;;;5.96;85.82
17635;BME280;8936;49.010;12.120;2023-04-06T05:47:30;98253.72;;;5.96;86.22
17635;BME280;8936;49.010;12.120;2023-04-06T05:49:57;98252.53;;;5.62;87.67
17635;BME280;8936;49.010;12.120;2023-04-06T05:52:23;98257.81;;;5.62;88.84
17635;BME280;8936;49.010;12.120;2023-04-06T05:54:50;98256.88;;;5.57;90.12
17635;BME280;8936;49.010;12.120;2023-04-06T05:57:17;98264.53;;;5.10;92.94
17635;BME280;8936;49.010;12.120;2023-04-06T05:59:44;98260.00;;;5.11;95.13
17635;BME280;8936;49.010;12.120;2023-04-06T06:02:10;98255.78;;;5.28;95.16
17635;BME280;8936;49.010;12.120;2023-04-06T06:04:37;98266.56;;;5.08;96.24
17635;BME280;8936;49.010;12.120;2023-04-06T06:07:03;98257.97;;;5.13;96.27
17635;BME280;8936;49.010;12.120;2023-04-06T06:09:30;98258.34;;;4.98;97.53
17635;BME280;8936;49.010;12.120;2023-04-06T06:11:57;98258.66;;;4.83;99.88
17635;BME280;8936;49.010;12.120;2023-04-06T06:14:24;98260.81;;;4.44;100.00
17635;BME280;8936;49.010;12.120;2023-04-06T06:16:53;98256.47;;;4.24;100.00
17635;BME280;8936;49.010;12.120;2023-04-06T06:19:19;98252.97;;;4.80;100.00
17635;BME280;8936;49.010;12.120;2023-04-06T06:21:46;98257.06;;;6.33;96.93
17635;BME280;8936;49.010;12.120;2023-04-06T06:24:12;98251.84;;;6.79;89.96
17635;BME280;8936;49.010;12.120;2023-04-06T06:26:39;98261.84;;;7.35;85.51
17635;BME280;8936;49.010;12.120;2023-04-06T06:29:05;98256.63;;;7.52;82.41
17635;BME280;8936;49.010;12.120;2023-04-06T06:31:33;98258.56;;;7.56;81.38
17635;BME280;8936;49.010;12.120;2023-04-06T06:34:00;98257.78;;;7.44;79.68
17635;BME280;8936;49.010;12.120;2023-04-06T06:36:27;98265.88;;;6.57;81.44
17635;BME280;8936;49.010;12.120;2023-04-06T06:38:53;98260.38;;;6.28;85.50
17635;BME280;8936;49.010;12.120;2023-04-06T06:41:20;98261.28;;;5.63;89.24
17635;BME280;8936;49.010;12.120;2023-04-06T06:43:46;98266.28;;;5.34;93.98
17635;BME280;8936;49.010;12.120;2023-04-06T06:46:12;98266.84;;;5.00;96.26
17635;BME280;8936;49.010;12.120;2023-04-06T06:48:40;98271.13;;;5.01;99.45
17635;BME280;8936;49.010;12.120;2023-04-06T06:51:07;98268.03;;;5.59;98.89
17635;BME280;8936;49.010;12.120;2023-04-06T06:53:34;98267.16;;;5.28;97.94
17635;BME280;8936;49.010;12.120;2023-04-06T06:56:01;98267.41;;;4.59;98.09
17635;BME280;8936;49.010;12.120;2023-04-06T06:58:27;98275.81;;;4.50;100.00
17635;BME280;8936;49.010;12.120;2023-04-06T07:00:55;98269.63;;;4.06;100.00
17635;BME280;8936;49.010;12.120;2023-04-06T07:03:21;98275.53;;;4.08;100.00
17635;BME280;8936;49.010;12.120;2023-04-06T07:05:49;98275.66;;;3.82;100.00
17635;BME280;8936;49.010;12.120;2023-04-06T07:08:18;98282.84;;;4.00;100.00
17635;BME280;8936;49.010;12.120;2023-04-06T07:10:44;98281.25;;;3.99;100.00
17635;BME280;8936;49.010;12.120;2023-04-06T07:13:10;98281.31;;;3.86;100.00
17635;BME280;8936;49.010;12.120;2023-04-06T07:15:37;98285.00;;;3.78;100.00
17635;BME280;8936;49.010;12.120;2023-04-06T07:18:03;98279.59;;;4.04;100.00
17635;BME280;8936;49.010;12.120;2023-04-06T07:20:30;98272.56;;;4.23;100.00
17635;BME280;8936;49.010;12.120;2023-04-06T07:22:58;98278.31;;;4.69;100.00
17635;BME280;8936;49.010;12.120;2023-04-06T07:25:24;98276.19;;;5.03;98.58
17635;BME280;8936;49.010;12.120;2023-04-06T07:27:50;98278.94;;;4.89;97.80
17635;BME280;8936;49.010;12.120;2023-04-06T07:30:17;98271.28;;;5.24;96.17
17635;BME280;8936;49.010;12.120;2023-04-06T07:32:43;98278.94;;;5.32;95.58
17635;BME280;8936;49.010;12.120;2023-04-06T07:35:10;98282.81;;;5.30;93.62
17635;BME280;8936;49.010;12.120;2023-04-06T07:37:36;98281.50;;;5.21;92.99
17635;BME280;8936;49.010;12.120;2023-04-06T07:40:05;98284.06;;;5.09;93.71
17635;BME280;8936;49.010;12.120;2023-04-06T07:42:31;98284.19;;;4.96;93.17
17635;BME280;8936;49.010;12.120;2023-04-06T07:44:59;98286.78;;;4.78;93.06
17635;BME280;8936;49.010;12.120;2023-04-06T07:47:25;98272.31;;;4.56;93.79
17635;BME280;8936;49.010;12.120;2023-04-06T07:49:51;98274.38;;;4.54;93.84
17635;BME280;8936;49.010;12.120;2023-04-06T07:52:18;98277.50;;;4.69;94.15
17635;BME280;8936;49.010;12.120;2023-04-06T07:54:44;98277.59;;;4.56;91.90
17635;BME280;8936;49.010;12.120;2023-04-06T07:57:12;98279.19;;;4.63;90.90
17635;BME280;8936;49.010;12.120;2023-04-06T07:59:38;98272.97;;;4.76;89.22
17635;BME280;8936;49.010;12.120;2023-04-06T08:02:05;98274.91;;;4.87;90.40
17635;BME280;8936;49.010;12.120;2023-04-06T08:04:31;98275.22;;;4.97;91.58
17635;BME280;8936;49.010;12.120;2023-04-06T08:06:58;98272.06;;;4.88;91.31
17635;BME280;8936;49.010;12.120;2023-04-06T08:09:24;98280.09;;;5.18;90.40
17635;BME280;8936;49.010;12.120;2023-04-06T08:11:51;98270.44;;;5.06;88.76
17635;BME280;8936;49.010;12.120;2023-04-06T08:14:19;98277.31;;;5.13;89.34
17635;BME280;8936;49.010;12.120;2023-04-06T08:16:46;98269.13;;;5.15;90.84
17635;BME280;8936;49.010;12.120;2023-04-06T08:19:12;98266.66;;;5.56;88.02
17635;BME280;8936;49.010;12.120;2023-04-06T08:21:42;98263.78;;;5.39;87.20
17635;BME280;8936;49.010;12.120;2023-04-06T08:24:08;98273.91;;;5.79;86.88
17635;BME280;8936;49.010;12.120;2023-04-06T08:26:35;98270.34;;;5.85;86.02
17635;BME280;8936;49.010;12.120;2023-04-06T08:29:01;98268.78;;;5.48;85.46
17635;BME280;8936;49.010;12.120;2023-04-06T08:31:30;98273.56;;;5.39;85.93
17635;BME280;8936;49.010;12.120;2023-04-06T08:33:59;98267.81;;;5.60;87.17
17635;BME280;8936;49.010;12.120;2023-04-06T08:36:25;98267.66;;;5.73;86.61
17635;BME280;8936;49.010;12.120;2023-04-06T08:38:52;98269.78;;;5.83;86.60
17635;BME280;8936;49.010;12.120;2023-04-06T08:41:19;98265.00;;;5.91;85.69
17635;BME280;8936;49.010;12.120;2023-04-06T08:43:47;98270.34;;;5.85;83.33
17635;BME280;8936;49.010;12.120;2023-04-06T08:46:13;98264.56;;;5.76;82.08
17635;BME280;8936;49.010;12.120;2023-04-06T08:48:42;98265.69;;;5.87;81.96
17635;BME280;8936;49.010;12.120;2023-04-06T08:51:08;98259.47;;;5.93;82.47
17635;BME280;8936;49.010;12.120;2023-04-06T08:53:35;98259.75;;;6.03;82.01
17635;BME280;8936;49.010;12.120;2023-04-06T08:56:03;98257.06;;;6.21;80.88
17635;BME280;8936;49.010;12.120;2023-04-06T08:58:32;98261.31;;;6.22;79.26
17635;BME280;8936;49.010;12.120;2023-04-06T09:00:58;98263.03;;;6.28;78.19
17635;BME280;8936;49.010;12.120;2023-04-06T09:03:26;98263.56;;;6.37;75.28
17635;BME280;8936;49.010;12.120;2023-04-06T09:05:54;98260.81;;;6.43;74.46
17635;BME280;8936;49.010;12.120;2023-04-06T09:08:21;98264.28;;;6.56;74.96
17635;BME280;8936;49.010;12.120;2023-04-06T09:10:48;98258.06;;;6.62;74.41
17635;BME280;8936;49.010;12.120;2023-04-06T09:13:17;98259.78;;;6.68;73.51
17635;BME280;8936;49.010;12.120;2023-04-06T09:15:43;98267.16;;;6.66;68.65
17635;BME280;8936;49.010;12.120;2023-04-06T09:18:09;98263.81;;;6.59;66.03
17635;BME280;8936;49.010;12.120;2023-04-06T09:20:36;98254.81;;;6.60;64.32
17635;BME280;8936;49.010;12.120;2023-04-06T09:23:04;98252.97;;;6.60;64.43
17635;BME280;8936;49.010;12.120;2023-04-06T09:25:30;98254.81;;;6.60;65.25
17635;BME280;8936;49.010;12.120;2023-04-06T09:27:58;98258.06;;;6.85;65.58
17635;BME280;8936;49.010;12.120;2023-04-06T09:30:25;98246.63;;;7.19;65.34
17635;BME280;8936;49.010;12.120;2023-04-06T09:32:52;98247.06;;;7.28;64.21
17635;BME280;8936;49.010;12.120;2023-04-06T09:35:19;98251.69;;;7.09;58.59
17635;BME280;8936;49.010;12.120;2023-04-06T09:37:46;98249.75;;;7.04;57.19
17635;BME280;8936;49.010;12.120;2023-04-06T09:40:14;98249.50;;;7.06;58.56
17635;BME280;8936;49.010;12.120;2023-04-06T09:42:42;98238.91;;;7.18;57.69
17635;BME280;8936;49.010;12.120;2023-04-06T09:45:11;98234.84;;;7.27;57.00
17635;BME280;8936;49.010;12.120;2023-04-06T09:47:37;98230.41;;;7.44;56.66
17635;BME280;8936;49.010;12.120;2023-04-06T09:50:06;98222.94;;;7.69;58.14
17635;BME280;8936;49.010;12.120;2023-04-06T09:52:33;98227.19;;;8.27;57.78
17635;BME280;8936;49.010;12.120;2023-04-06T09:55:04;98221.19;;;8.03;55.48
17635;BME280;8936;49.010;12.120;2023-04-06T09:57:36;98217.84;;;7.96;56.23
17635;BME280;8936;49.010;12.120;2023-04-06T10:00:06;98216.41;;;8.05;56.08
17635;BME280;8936;49.010;12.120;2023-04-06T10:02:37;98213.53;;;8.06;54.78
17635;BME280;8936;49.010;12.120;2023-04-06T10:05:07;98220.63;;;8.01;53.60
17635;BME280;8936;49.010;12.120;2023-04-06T10:07:36;98213.69;;;8.00;53.05
17635;BME280;8936;49.010;12.120;2023-04-06T10:10:03;98207.09;;;8.47;55.42
17635;BME280;8936;49.010;12.120;2023-04-06T10:12:29;98211.22;;;8.27;52.18
17635;BME280;8936;49.010;12.120;2023-04-06T10:14:57;98213.09;;;8.26;52.01
17635;BME280;8936;49.010;12.120;2023-04-06T10:17:24;98211.00;;;8.45;53.24
17635;BME280;8936;49.010;12.120;2023-04-06T10:19:52;98205.38;;;8.75;53.60
17635;BME280;8936;49.010;12.120;2023-04-06T10:22:22;98205.31;;;9.08;53.65
17635;BME280;8936;49.010;12.120;2023-04-06T10:24:50;98209.59;;;9.74;54.89
17635;BME280;8936;49.010;12.120;2023-04-06T10:27:16;98200.94;;;9.89;53.91
17635;BME280;8936;49.010;12.120;2023-04-06T10:29:53;98195.38;;;9.90;53.71
17635;BME280;8936;49.010;12.120;2023-04-06T10:32:20;98184.25;;;9.98;53.16
17635;BME280;8936;49.010;12.120;2023-04-06T10:35:04;98185.84;;;10.21;52.98
17635;BME280;8936;49.010;12.120;2023-04-06T10:37:45;98189.06;;;10.28;52.21
17635;BME280;8936;49.010;12.120;2023-04-06T10:40:17;98193.41;;;9.81;48.19
17635;BME280;8936;49.010;12.120;2023-04-06T10:42:44;98185.53;;;9.47;47.54
17635;BME280;8936;49.010;12.120;2023-04-06T10:45:18;98187.47;;;9.08;47.60
17635;BME280;8936;49.010;12.120;2023-04-06T10:47:46;98179.50;;;8.92;47.74
17635;BME280;8936;49.010;12.120;2023-04-06T10:50:13;98184.34;;;8.95;48.62
17635;BME280;8936;49.010;12.120;2023-04-06T10:52:40;98180.16;;;8.82;48.31
17635;BME280;8936;49.010;12.120;2023-04-06T10:55:08;98176.81;;;9.08;48.94
17635;BME280;8936;49.010;12.120;2023-04-06T10:57:34;98167.94;;;9.03;48.40
17635;BME280;8936;49.010;12.120;2023-04-06T11:00:03;98165.25;;;9.95;51.46
17635;BME280;8936;49.010;12.120;2023-04-06T11:02:29;98175.91;;;9.90;49.95
17635;BME280;8936;49.010;12.120;2023-04-06T11:04:58;98168.31;;;9.82;49.05
17635;BME280;8936;49.010;12.120;2023-04-06T11:07:25;98164.16;;;9.91;49.23
17635;BME280;8936;49.010;12.120;2023-04-06T11:09:52;98167.94;;;9.95;48.62
17635;BME280;8936;49.010;12.120;2023-04-06T11:12:22;98169.63;;;10.33;49.24
17635;BME280;8936;49.010;12.120;2023-04-06T11:14:53;98167.25;;;9.77;47.54
17635;BME280;8936;49.010;12.120;2023-04-06T11:17:25;98166.34;;;10.20;49.16
17635;BME280;8936;49.010;12.120;2023-04-06T11:19:51;98163.19;;;10.02;48.54
17635;BME280;8936;49.010;12.120;2023-04-06T11:22:19;98156.25;;;10.01;46.36
17635;BME280;8936;49.010;12.120;2023-04-06T11:24:46;98159.66;;;9.69;46.50
17635;BME280;8936;49.010;12.120;2023-04-06T11:27:14;98149.38;;;9.56;46.45
17635;BME280;8936;49.010;12.120;2023-04-06T11:29:43;98140.59;;;9.83;49.59
17635;BME280;8936;49.010;12.120;2023-04-06T11:32:11;98145.94;;;9.83;47.53
17635;BME280;8936;49.010;12.120;2023-04-06T11:34:38;98138.94;;;9.76;46.98
17635;BME280;8936;49.010;12.120;2023-04-06T11:37:06;98134.66;;;9.75;46.27
17635;BME280;8936;49.010;12.120;2023-04-06T11:39:38;98131.28;;;10.12;48.85
17635;BME280;8936;49.010;12.120;2023-04-06T11:42:05;98135.91;;;9.95;46.07
17635;BME280;8936;49.010;12.120;2023-04-06T11:44:32;98124.72;;;9.98;47.38
17635;BME280;8936;49.010;12.120;2023-04-06T11:47:00;98119.72;;;10.06;46.60
17635;BME280;8936;49.010;12.120;2023-04-06T11:49:26;98122.69;;;10.10;47.08
17635;BME280;8936;49.010;12.120;2023-04-06T11:51:53;98112.34;;;10.13;47.34
17635;BME280;8936;49.010;12.120;2023-04-06T11:54:28;98112.34;;;10.13;45.73
17635;BME280;8936;49.010;12.120;2023-04-06T11:56:56;98113.25;;;10.24;45.01
17635;BME280;8936;49.010;12.120;2023-04-06T11:59:23;98109.22;;;10.21;45.01
17635;BME280;8936;49.010;12.120;2023-04-06T12:01:49;98103.34;;;10.24;45.18
17635;BME280;8936;49.010;12.120;2023-04-06T12:04:17;98108.00;;;10.07;45.31
17635;BME280;8936;49.010;12.120;2023-04-06T12:06:43;98107.63;;;10.20;45.51
17635;BME280;8936;49.010;12.120;2023-04-06T12:09:10;98105.88;;;10.09;45.50
17635;BME280;8936;49.010;12.120;2023-04-06T12:11:36;98107.91;;;10.24;46.49
17635;BME280;8936;49.010;12.120;2023-04-06T12:14:04;98100.00;;;10.39;45.80
17635;BME280;8936;49.010;12.120;2023-04-06T12:16:32;98096.25;;;10.40;47.91
17635;BME280;8936;49.010;12.120;2023-04-06T12:18:59;98081.94;;;10.51;44.86
17635;BME280;8936;49.010;12.120;2023-04-06T12:21:26;98084.34;;;10.53;44.43
17635;BME280;8936;49.010;12.120;2023-04-06T12:23:52;98089.66;;;10.53;44.98
17635;BME280;8936;49.010;12.120;2023-04-06T12:26:19;98089.84;;;10.36;44.05
17635;BME280;8936;49.010;12.120;2023-04-06T12:28:45;98088.09;;;10.15;44.13
17635;BME280;8936;49.010;12.120;2023-04-06T12:31:17;98080.63;;;10.17;45.83
17635;BME280;8936;49.010;12.120;2023-04-06T12:33:43;98075.88;;;10.24;45.44
17635;BME280;8936;49.010;12.120;2023-04-06T12:36:11;98082.88;;;10.30;45.83
17635;BME280;8936;49.010;12.120;2023-04-06T12:38:37;98079.19;;;10.36;45.56
17635;BME280;8936;49.010;12.120;2023-04-06T12:41:05;98081.50;;;10.27;45.44
17635;BME280;8936;49.010;12.120;2023-04-06T12:43:31;98082.16;;;10.45;45.40
17635;BME280;8936;49.010;12.120;2023-04-06T12:45:58;98076.59;;;10.51;45.53
17635;BME280;8936;49.010;12.120;2023-04-06T12:48:26;98074.38;;;10.43;46.11
17635;BME280;8936;49.010;12.120;2023-04-06T12:50:57;98077.19;;;10.58;47.34
17635;BME280;8936;49.010;12.120;2023-04-06T12:53:23;98076.97;;;10.70;43.88
17635;BME280;8936;49.010;12.120;2023-04-06T12:55:50;98074.59;;;10.73;43.30
17635;BME280;8936;49.010;12.120;2023-04-06T12:58:16;98064.84;;;10.52;44.75
17635;BME280;8936;49.010;12.120;2023-04-06T13:00:43;98074.97;;;10.50;43.95
17635;BME280;8936;49.010;12.120;2023-04-06T13:03:10;98069.31;;;10.42;44.72
17635;BME280;8936;49.010;12.120;2023-04-06T13:05:39;98064.53;;;10.44;44.60
17635;BME280;8936;49.010;12.120;2023-04-06T13:08:09;98058.34;;;10.38;44.71